Terminal Aerodrome Forecast
Issued by NWS Sterling, VA

Current Version | Previous Version | Text Only | Print | Product List | Glossary Off
Versions: 1 2 3 4 5 6 7 8 9 10 11 12 13 14 15 16 17 18 19 20 21 22

763
FTUS41 KLWX 132059 AAA
TAFDCA
TAF AMD
KDCA 132059Z 1321/1418 33014G20KT P6SM BKN150
     FM132300 01007KT P6SM OVC130
     FM140600 VRB03KT P6SM OVC080
     FM140700 00000KT 6SM -SNPL BR OVC040
     FM140900 00000KT 5SM -FZRAPL BR OVC025
     FM141500 00000KT 2SM -FZRAPL BR OVC008
     FM141700 00000KT 2SM -RA BR OVC008=

USA.gov is the U.S. government's official web portal to all federal, state and local government web resources and services.